Decoded Metar for EPSC (SZCZECIN in POLAND) (IATA:SZZ) | Meteo·Mobile Aviation Weather
aviador You're here:

EPSC Decoded Metar

SZCZECIN in POLAND
Report Time2019-05-19 18:30:00
UTC Time2019-05-19 18:57:57
Flight Rules vfr VFR
Wind060° at 05 kt
W.Decomp.*RWY 13: 1.5 kt HW 4.8 kt LCW
Visibility9999 m
Phenomena:N/A
Clouds:N/A
Expected CloudBase > 2,400 ft AGL from Temp-Dew spread
CeilingNone
Temp19°C (ISA +4)
Dew Point13°C (68% RH)
AAT18.1°C
QNH1005 hPa
Density Alt951 ft
Elevation10 ft
Report Wrong Elevation
Raw Report
EPSC 191830Z 06005KT CAVOK 19/13 Q1005=

Extra information for EPSC:More info

Metar Taf Metar & Taf Last 4 Metars F.Rules Stats Wind Profile Meteogram Temp Stats Airport Information Weather charts Add Link Nearby VenuesMetar ALERT Operation Metar Decoded Social comments